Time;durP1;ratioP1;P1;durP2;ratioP2;P2;SDS_P1;SDS_P2;PMS_P1;PMS_P2;Temp;Humidity;BMP_temperature;BMP_pressure;BME280_temperature;BME280_humidity;BME280_pressure;Samples;Min_cycle;Max_cycle;Signal;HPM_P1;HPM_P2
2021/04/01 00:01:33;172662.00;0.58;298.85;0.00;0.00;0.62;;;;;15.90;1.00;;;;;;2248148;62;1078;-88
2021/04/01 00:04:01;201955.00;0.67;349.29;0.00;0.00;0.62;;;;;15.80;1.00;;;;;;2248634;61;1055;-89
2021/04/01 00:06:28;178065.00;0.59;308.16;0.00;0.00;0.62;;;;;16.00;1.00;;;;;;2248648;61;985;-88
2021/04/01 00:08:59;41022.00;0.14;71.66;0.00;0.00;0.62;;;;;16.00;1.00;;;;;;2247934;61;1386;-87
2021/04/01 00:11:25;719290.00;2.40;1240.71;190865.00;0.64;330.20;;;;;16.30;1.00;;;;;;2247143;62;1937;-87
2021/04/01 00:13:52;0.00;0.00;0.62;0.00;0.00;0.62;;;;;16.60;1.00;;;;;;2249915;61;1081;-87
2021/04/01 00:16:20;38233.00;0.13;66.83;0.00;0.00;0.62;;;;;16.60;1.00;;;;;;2260204;61;1133;-87
2021/04/01 00:18:49;25846.00;0.09;45.39;0.00;0.00;0.62;;;;;16.90;1.00;;;;;;2259471;61;1007;-87
2021/04/01 00:21:15;57668.00;0.19;100.45;0.00;0.00;0.62;;;;;16.90;1.00;;;;;;2251335;61;1363;-87
2021/04/01 00:23:42;269618.00;0.90;465.69;0.00;0.00;0.62;;;;;16.90;1.00;;;;;;2252392;61;1184;-87
2021/04/01 00:26:09;43969.00;0.15;76.75;0.00;0.00;0.62;;;;;17.00;1.00;;;;;;2251582;61;1050;-87
2021/04/01 00:28:35;202193.00;0.67;349.70;0.00;0.00;0.62;;;;;17.30;1.00;;;;;;2243812;62;1199;-87
2021/04/01 00:31:02;211129.00;0.70;365.08;0.00;0.00;0.62;;;;;17.30;1.00;;;;;;2240230;62;1920;-88
2021/04/01 00:33:29;367742.00;1.23;634.36;32648.00;0.11;57.17;;;;;17.30;1.00;;;;;;2243782;62;1126;-87
2021/04/01 00:35:56;180224.00;0.60;311.88;34181.00;0.11;59.82;;;;;16.50;1.00;;;;;;2239492;62;1198;-87
2021/04/01 00:38:22;354159.00;1.18;611.01;103826.00;0.35;180.18;;;;;16.10;1.00;;;;;;2240541;62;1082;-87
2021/04/01 00:40:49;240643.00;0.80;415.86;0.00;0.00;0.62;;;;;16.10;1.00;;;;;;2251142;61;1430;-88
2021/04/01 00:43:16;320183.00;1.07;552.61;21596.00;0.07;38.03;;;;;15.80;1.00;;;;;;2247601;62;1162;-88
2021/04/01 00:45:42;306768.00;1.02;529.55;0.00;0.00;0.62;;;;;15.40;1.00;;;;;;2247670;62;1178;-88
2021/04/01 00:48:09;111542.00;0.37;193.49;0.00;0.00;0.62;;;;;15.30;1.00;;;;;;2247237;62;1134;-88
2021/04/01 00:50:37;172320.00;0.57;298.26;0.00;0.00;0.62;;;;;15.20;1.00;;;;;;2243342;62;2009;-87
2021/04/01 00:53:03;297435.00;0.99;513.51;0.00;0.00;0.62;;;;;15.20;1.00;;;;;;2237776;62;1106;-87
2021/04/01 00:55:30;141440.00;0.47;245.05;0.00;0.00;0.62;;;;;15.10;1.00;;;;;;2239719;62;1074;-88
2021/04/01 00:58:00;67895.00;0.23;118.12;0.00;0.00;0.62;;;;;15.10;1.00;;;;;;2236119;62;1023;-88
2021/04/01 01:00:30;205949.00;0.69;356.16;20962.00;0.07;36.94;;;;;15.40;1.00;;;;;;2239395;62;1338;-87
2021/04/01 01:02:57;134279.00;0.45;232.71;0.00;0.00;0.62;;;;;15.50;1.00;;;;;;2239734;62;1150;-87
2021/04/01 01:05:24;180345.00;0.60;312.08;52889.00;0.18;92.18;;;;;15.50;1.00;;;;;;2239691;62;1201;-87
2021/04/01 01:07:52;43725.00;0.15;76.33;0.00;0.00;0.62;;;;;15.60;1.00;;;;;;2240981;62;1142;-87
2021/04/01 01:10:22;213876.00;0.71;369.81;0.00;0.00;0.62;;;;;15.50;1.00;;;;;;2248775;61;1997;-87
2021/04/01 01:12:50;160873.00;0.54;278.54;0.00;0.00;0.62;;;;;15.30;1.00;;;;;;2255582;61;1126;-87
2021/04/01 01:15:17;85745.00;0.29;148.96;0.00;0.00;0.62;;;;;15.20;1.00;;;;;;2251714;61;1071;-86
2021/04/01 01:17:43;51694.00;0.17;90.12;0.00;0.00;0.62;;;;;15.00;1.00;;;;;;2255908;61;1153;-87
2021/04/01 01:20:11;161439.00;0.54;279.52;0.00;0.00;0.62;;;;;14.80;1.00;;;;;;2255211;61;1411;-87
2021/04/01 01:22:39;34850.00;0.12;60.98;0.00;0.00;0.62;;;;;14.80;1.00;;;;;;2255347;61;1133;-87
2021/04/01 01:25:09;201540.00;0.67;348.57;0.00;0.00;0.62;;;;;15.00;1.00;;;;;;2259674;61;1020;-87
2021/04/01 01:27:36;1341.00;0.00;2.94;0.00;0.00;0.62;;;;;14.80;1.00;;;;;;2251348;61;1093;-87
2021/04/01 01:30:05;216510.00;0.72;374.34;37627.00;0.13;65.78;;;;;14.70;1.00;;;;;;2251392;61;2003;-89
2021/04/01 01:32:36;85790.00;0.29;149.04;0.00;0.00;0.62;;;;;14.80;1.00;;;;;;2244869;61;1095;-88
2021/04/01 01:35:05;90512.00;0.30;157.19;0.00;0.00;0.62;;;;;14.80;1.00;;;;;;2251570;61;1026;-88
2021/04/01 01:37:32;155299.00;0.52;268.94;31995.00;0.11;56.04;;;;;14.60;1.00;;;;;;2247697;61;999;-87
2021/04/01 01:39:59;267043.00;0.89;461.26;51117.00;0.17;89.12;;;;;14.70;1.00;;;;;;2247350;62;1289;-87
2021/04/01 01:42:26;199534.00;0.67;345.12;49624.00;0.17;86.54;;;;;14.50;1.00;;;;;;2243693;62;1291;-87
2021/04/01 01:44:55;203130.00;0.68;351.31;0.00;0.00;0.62;;;;;14.50;1.00;;;;;;2245769;61;1148;-87
2021/04/01 01:47:21;291893.00;0.97;503.98;39718.00;0.13;69.40;;;;;14.30;1.00;;;;;;2259601;61;1759;-87
2021/04/01 01:49:47;262275.00;0.87;453.06;0.00;0.00;0.62;;;;;14.10;1.00;;;;;;2259612;61;2004;-87
2021/04/01 01:52:14;190278.00;0.63;329.19;0.00;0.00;0.62;;;;;14.00;1.00;;;;;;2251378;61;1162;-87
2021/04/01 01:54:40;242325.00;0.81;418.75;0.00;0.00;0.62;;;;;13.80;1.00;;;;;;2244088;62;1126;-88
2021/04/01 01:57:07;63254.00;0.21;110.10;0.00;0.00;0.62;;;;;13.70;1.00;;;;;;2247560;62;1166;-88
2021/04/01 01:59:34;306200.00;1.02;528.58;27785.00;0.09;48.75;;;;;13.60;1.00;;;;;;2247440;62;1345;-87
2021/04/01 02:02:01;313216.00;1.04;540.64;41425.00;0.14;72.35;;;;;13.60;1.00;;;;;;2247675;61;1113;-88
2021/04/01 02:04:27;546537.00;1.82;941.99;85372.00;0.28;148.32;;;;;13.50;1.00;;;;;;2247367;61;1005;-88
2021/04/01 02:07:00;329552.00;1.10;568.72;57152.00;0.19;99.55;;;;;13.70;1.00;;;;;;2235722;62;1139;-88
2021/04/01 02:09:26;472792.00;1.58;814.99;62919.00;0.21;109.52;;;;;13.70;1.00;;;;;;2237067;62;1415;-88
2021/04/01 02:11:53;464095.00;1.55;800.03;85513.00;0.29;148.56;;;;;13.70;1.00;;;;;;2236806;62;1931;-88
2021/04/01 02:14:20;335326.00;1.12;578.64;32600.00;0.11;57.08;;;;;13.80;1.00;;;;;;2243779;62;1137;-88
2021/04/01 02:16:48;246531.00;0.82;425.98;0.00;0.00;0.62;;;;;13.90;1.00;;;;;;2243421;62;1113;-87
2021/04/01 02:19:14;111342.00;0.37;193.15;0.00;0.00;0.62;;;;;13.90;1.00;;;;;;2233811;62;1463;-89
2021/04/01 02:21:41;134432.00;0.45;232.97;0.00;0.00;0.62;;;;;13.90;1.00;;;;;;2243426;62;1029;-88
2021/04/01 02:24:12;405247.00;1.35;698.83;37846.00;0.13;66.16;;;;;13.80;1.00;;;;;;2247979;61;951;-89
2021/04/01 02:26:41;39787.00;0.13;69.52;0.00;0.00;0.62;;;;;13.90;1.00;;;;;;2252756;61;1173;-87
2021/04/01 02:29:08;407487.00;1.36;702.68;107832.00;0.36;187.09;;;;;14.30;1.00;;;;;;2249384;61;1461;-88
2021/04/01 02:31:35;178420.00;0.59;308.77;31053.00;0.10;54.41;;;;;14.50;1.00;;;;;;2252088;61;2017;-89
2021/04/01 02:34:02;190678.00;0.64;329.88;0.00;0.00;0.62;;;;;14.60;1.00;;;;;;2244127;62;966;-88
2021/04/01 02:36:29;244259.00;0.81;422.08;8635.00;0.03;15.58;;;;;14.80;1.00;;;;;;2240108;62;1121;-88
2021/04/01 02:38:55;274141.00;0.91;473.46;0.00;0.00;0.62;;;;;14.90;1.00;;;;;;2240100;62;1268;-89
2021/04/01 02:41:21;260668.00;0.87;450.30;32732.00;0.11;57.31;;;;;14.70;1.00;;;;;;2244090;61;1077;-88
2021/04/01 02:43:49;241062.00;0.80;416.58;83095.00;0.28;144.38;;;;;14.60;1.00;;;;;;2243889;62;1102;-89
2021/04/01 02:46:15;87365.00;0.29;151.76;0.00;0.00;0.62;;;;;14.80;1.00;;;;;;2243884;62;1078;-88
2021/04/01 02:48:43;179672.00;0.60;310.92;0.00;0.00;0.62;;;;;15.20;1.00;;;;;;2240866;62;1125;-88
2021/04/01 02:51:10;259474.00;0.86;448.24;70899.00;0.24;123.31;;;;;15.40;1.00;;;;;;2249106;61;1989;-89
2021/04/01 02:53:37;216260.00;0.72;373.91;62161.00;0.21;108.21;;;;;15.10;1.00;;;;;;2252167;61;1038;-88
2021/04/01 02:56:04;425744.00;1.42;734.07;25108.00;0.08;44.11;;;;;14.80;1.00;;;;;;2252228;61;1075;-88
2021/04/01 02:58:30;290960.00;0.97;502.38;4696.00;0.02;8.76;;;;;14.50;1.00;;;;;;2249911;61;968;-90
2021/04/01 03:00:57;234487.00;0.78;405.27;0.00;0.00;0.62;;;;;14.30;1.00;;;;;;2256544;61;1335;-89
2021/04/01 03:03:26;61911.00;0.21;107.78;0.00;0.00;0.62;;;;;13.90;1.00;;;;;;2244584;61;1055;-88
2021/04/01 03:05:55;19956.00;0.07;35.19;0.00;0.00;0.62;;;;;13.70;1.00;;;;;;2244524;62;1070;-88
2021/04/01 03:08:22;64901.00;0.22;112.95;0.00;0.00;0.62;;;;;13.70;1.00;;;;;;2240434;62;999;-89
2021/04/01 03:10:51;248787.00;0.83;429.86;0.00;0.00;0.62;;;;;13.80;1.00;;;;;;2240511;62;2009;-89
2021/04/01 03:13:17;107965.00;0.36;187.32;30412.00;0.10;53.30;;;;;14.00;1.00;;;;;;2240297;62;1153;-89
2021/04/01 03:15:43;233577.00;0.78;403.70;0.00;0.00;0.62;;;;;14.10;1.00;;;;;;2236492;62;1068;-88
2021/04/01 03:18:10;533412.00;1.78;919.37;0.00;0.00;0.62;;;;;13.90;1.00;;;;;;2238870;62;1074;-89
2021/04/01 03:20:36;270465.00;0.90;467.14;0.00;0.00;0.62;;;;;13.60;1.00;;;;;;2241923;61;1371;-90
2021/04/01 03:23:03;336293.00;1.12;580.30;25467.00;0.08;44.74;;;;;13.50;1.00;;;;;;2244755;61;1038;-90
2021/04/01 03:25:37;457237.00;1.52;788.23;62899.00;0.21;109.49;;;;;13.50;1.00;;;;;;2244679;62;1044;-88
2021/04/01 03:28:05;432415.00;1.44;745.54;73099.00;0.24;127.12;;;;;14.10;1.00;;;;;;2249002;61;1068;-90
2021/04/01 03:30:32;164369.00;0.55;284.57;0.00;0.00;0.62;;;;;14.10;1.00;;;;;;2248549;61;1928;-91
2021/04/01 03:32:58;173675.00;0.58;300.60;0.00;0.00;0.62;;;;;14.10;1.00;;;;;;2245954;61;1129;-88
2021/04/01 03:35:25;178225.00;0.59;308.43;0.00;0.00;0.62;;;;;13.80;1.00;;;;;;2249272;61;1717;-90
2021/04/01 03:37:54;210509.00;0.70;364.01;0.00;0.00;0.62;;;;;13.80;1.00;;;;;;2252209;61;1097;-89
2021/04/01 03:40:21;229099.00;0.76;396.00;0.00;0.00;0.62;;;;;13.80;1.00;;;;;;2244946;61;1365;-87
2021/04/01 03:42:49;178719.00;0.60;309.28;30633.00;0.10;53.68;;;;;13.60;1.00;;;;;;2248421;62;994;-87
2021/04/01 03:45:16;236610.00;0.79;408.92;0.00;0.00;0.62;;;;;13.40;1.00;;;;;;2248065;62;1150;-87
2021/04/01 03:47:43;240815.00;0.80;416.15;39091.00;0.13;68.32;;;;;12.90;1.00;;;;;;2248392;62;1031;-88
2021/04/01 03:50:13;132401.00;0.44;229.47;0.00;0.00;0.62;;;;;12.80;1.00;;;;;;2251812;61;2003;-88
2021/04/01 03:52:41;31556.00;0.11;55.28;0.00;0.00;0.62;;;;;13.10;1.00;;;;;;2248672;61;1008;-88
2021/04/01 03:57:35;219869.00;0.73;380.12;0.00;0.00;0.62;;;;;13.00;1.00;;;;;;2266472;61;1399;-87
2021/04/01 04:00:10;215091.00;0.72;371.90;5863.00;0.02;10.78;;;;;13.00;1.00;;;;;;2260476;61;1434;-88
2021/04/01 04:02:45;498681.00;1.66;859.55;91730.00;0.31;159.29;;;;;13.20;1.00;;;;;;2257246;61;987;-88
2021/04/01 04:05:19;78023.00;0.26;135.62;11193.00;0.04;20.02;;;;;13.30;1.00;;;;;;2260974;61;1215;-87
2021/04/01 04:08:01;24727.00;0.08;43.45;0.00;0.00;0.62;;;;;13.40;1.00;;;;;;2260245;61;1022;-88
2021/04/01 04:13:11;626304.00;2.09;1079.66;108677.00;0.36;188.55;;;;;13.30;1.00;;;;;;2270226;61;1344;-86
2021/04/01 04:15:39;8843.00;0.03;15.94;0.00;0.00;0.62;;;;;13.20;1.00;;;;;;2260239;61;1096;-88
2021/04/01 04:18:06;331948.00;1.11;572.83;23980.00;0.08;42.16;;;;;13.10;1.00;;;;;;2260440;61;1083;-88
2021/04/01 04:20:33;57680.00;0.19;100.47;0.00;0.00;0.62;;;;;13.00;1.00;;;;;;2256192;61;1326;-89
2021/04/01 04:22:59;193245.00;0.64;334.30;19170.00;0.06;33.83;;;;;13.10;1.00;;;;;;2249562;61;1264;-88
2021/04/01 04:25:27;250484.00;0.83;432.78;34507.00;0.12;60.38;;;;;12.80;1.00;;;;;;2244269;61;1027;-88
2021/04/01 04:30:37;221805.00;0.74;383.45;31133.00;0.10;54.54;;;;;12.50;1.00;;;;;;2240425;61;2005;-87
2021/04/01 04:33:04;133701.00;0.45;231.71;0.00;0.00;0.62;;;;;12.50;1.00;;;;;;2235533;62;995;-87
2021/04/01 04:35:31;277890.00;0.93;479.91;0.00;0.00;0.62;;;;;12.50;1.00;;;;;;2225878;62;1060;-87
2021/04/01 04:37:59;538215.00;1.79;927.65;0.00;0.00;0.62;;;;;12.60;1.00;;;;;;2235450;61;1075;-89
2021/04/01 04:40:26;209178.00;0.70;361.72;0.00;0.00;0.62;;;;;12.60;1.00;;;;;;2237801;62;1387;-88
2021/04/01 04:42:52;429309.00;1.43;740.20;43620.00;0.15;76.15;;;;;12.60;1.00;;;;;;2235340;62;1038;-88
2021/04/01 04:45:19;425873.00;1.42;734.29;10156.00;0.03;18.22;;;;;12.80;1.00;;;;;;2244371;62;1158;-88
2021/04/01 04:47:45;304620.00;1.02;525.86;0.00;0.00;0.62;;;;;12.90;1.00;;;;;;2244280;62;1090;-88
2021/04/01 04:50:14;447363.00;1.49;771.25;114007.00;0.38;197.74;;;;;12.90;1.00;;;;;;2236457;62;1924;-86
2021/04/01 04:52:41;769895.00;2.57;1328.67;119065.00;0.40;206.47;;;;;12.90;1.00;;;;;;2236437;62;1100;-87
2021/04/01 04:55:11;291008.00;0.97;502.46;0.00;0.00;0.62;;;;;13.30;1.00;;;;;;2229893;62;985;-88
2021/04/01 05:05:34;0.00;0.00;0.62;0.00;0.00;0.62;;;;;14.30;1.00;;;;;;2256230;61;1114;-89
2021/04/01 05:08:00;344820.00;1.15;594.96;0.00;0.00;0.62;;;;;14.60;1.00;;;;;;2255968;61;1013;-89
2021/04/01 05:13:04;936421.00;3.12;1620.18;0.00;0.00;0.62;;;;;14.80;1.00;;;;;;2266697;61;1348;-88
2021/04/01 05:15:32;4387.00;0.01;8.22;0.00;0.00;0.62;;;;;15.10;1.00;;;;;;2256145;61;918;-87
2021/04/01 05:25:41;762052.00;2.54;1315.02;0.00;0.00;0.62;;;;;14.60;1.00;;;;;;2270281;61;1187;-88
2021/04/01 05:28:18;207746.00;0.69;359.26;0.00;0.00;0.62;;;;;14.30;1.00;;;;;;2260056;61;1097;-88
2021/04/01 05:30:45;534519.00;1.78;921.28;82892.00;0.28;144.03;;;;;14.20;1.00;;;;;;2260146;61;1998;-89
2021/04/01 05:33:12;327235.00;1.09;564.73;83840.00;0.28;145.67;;;;;14.00;1.00;;;;;;2253427;61;987;-87
2021/04/01 05:35:39;117511280.00;391.70;65730708.00;91311.00;0.30;158.57;;;;;14.00;1.00;;;;;;2260063;61;1157;-89
2021/04/01 05:38:06;287477.00;0.96;496.39;81157.00;0.27;141.04;;;;;14.10;1.00;;;;;;2253538;61;992;-87
2021/04/01 05:40:32;458076.00;1.53;789.67;89605.00;0.30;155.63;;;;;14.30;1.00;;;;;;2252062;61;1295;-88
2021/04/01 05:45:35;339706.00;1.13;586.17;96795.00;0.32;168.04;;;;;14.90;1.00;;;;;;2270433;61;1403;-88
2021/04/01 05:48:04;399671.00;1.33;689.24;89005.00;0.30;154.59;;;;;14.80;1.00;;;;;;2268640;61;1009;-88
2021/04/01 05:50:43;119133440.00;397.11;68493096.00;84831.00;0.28;147.38;;;;;14.90;1.00;;;;;;2264032;61;1989;-89
2021/04/01 05:59:16;718154.00;2.39;1238.73;90524.00;0.30;157.21;;;;;15.20;1.00;;;;;;2244012;62;1401;-88
2021/04/01 06:01:55;316178.00;1.05;545.73;79204.00;0.26;137.66;;;;;15.30;1.00;;;;;;2235933;62;1055;-87
2021/04/01 06:04:27;135956.00;0.45;235.60;20052.00;0.07;35.36;;;;;15.60;1.00;;;;;;2240224;62;1052;-88
2021/04/01 06:09:26;388811.00;1.30;670.57;0.00;0.00;0.62;;;;;16.10;1.00;;;;;;2270273;61;1391;-89
2021/04/01 06:16:57;536927.00;1.79;925.43;0.00;0.00;0.62;;;;;16.60;1.00;;;;;;2261962;61;1213;-89
2021/04/01 06:19:33;235911.00;0.79;407.72;46681.00;0.16;81.45;;;;;16.90;1.00;;;;;;2261473;61;1451;-87
2021/04/01 06:22:06;313642.00;1.05;541.37;71711.00;0.24;124.72;;;;;17.00;1.00;;;;;;2268122;61;943;-88
2021/04/01 06:24:34;221587.00;0.74;383.07;148.00;0.00;0.88;;;;;17.10;1.00;;;;;;2268232;61;1010;-89
2021/04/01 06:27:05;237340.00;0.79;410.18;0.00;0.00;0.62;;;;;17.20;1.00;;;;;;2264108;61;1097;-88
2021/04/01 06:29:35;235204.00;0.78;406.50;67623.00;0.23;117.65;;;;;17.50;1.00;;;;;;2256075;61;1428;-88
2021/04/01 06:32:03;0.00;0.00;0.62;0.00;0.00;0.62;;;;;17.70;1.00;;;;;;2249481;61;1929;-88
2021/04/01 06:34:39;26297.00;0.09;46.17;0.00;0.00;0.62;;;;;18.00;1.00;;;;;;2251978;61;935;-86
2021/04/01 06:37:21;46769.00;0.16;81.60;0.00;0.00;0.62;;;;;18.80;1.00;;;;;;2245532;61;896;-87
2021/04/01 06:39:57;125144.00;0.42;216.95;0.00;0.00;0.62;;;;;19.70;1.00;;;;;;2252044;61;1389;-88
2021/04/01 06:42:37;0.00;0.00;0.62;81385.00;0.27;141.43;;;;;19.90;1.00;;;;;;2252130;61;1053;-86
2021/04/01 06:45:09;130235632.00;434.12;89504608.00;87012.00;0.29;151.15;;;;;19.90;1.00;;;;;;2246192;61;993;-86
2021/04/01 06:47:40;15384.00;0.05;27.28;0.00;0.00;0.62;;;;;20.00;1.00;;;;;;2248105;61;927;-87
2021/04/01 06:52:43;797037.00;2.66;1375.96;0.00;0.00;0.62;;;;;20.20;1.00;;;;;;2270550;61;1771;-87
2021/04/01 06:55:23;136329.00;0.45;236.24;0.00;0.00;0.62;;;;;20.30;1.00;;;;;;2268462;61;1104;-87
2021/04/01 06:58:05;0.00;0.00;0.62;0.00;0.00;0.62;;;;;20.70;1.00;;;;;;2268522;61;1048;-87
2021/04/01 07:00:43;156847.00;0.52;271.61;0.00;0.00;0.62;;;;;21.00;1.00;;;;;;2261392;61;1378;-89
2021/04/01 07:03:16;267679.00;0.89;462.35;0.00;0.00;0.62;;;;;21.40;1.00;;;;;;2268593;61;945;-91
2021/04/01 07:05:53;280140.00;0.93;483.78;59089.00;0.20;102.90;;;;;22.50;1.00;;;;;;2264787;61;975;-89
2021/04/01 07:08:33;251028.00;0.84;433.72;89631.00;0.30;155.67;;;;;23.40;1.00;;;;;;2268297;61;1036;-88
2021/04/01 07:19:00;400719.00;1.34;691.04;133329.00;0.44;231.07;;;;;23.70;1.00;;;;;;2270657;61;1295;-87
2021/04/01 07:46:40;226170.00;0.75;390.96;49459.00;0.16;86.25;;;;;23.80;1.00;;;;;;2240774;62;1100;-88
2021/04/01 07:49:20;74084.00;0.25;128.82;0.00;0.00;0.62;;;;;24.10;1.00;;;;;;2240695;62;1717;-90
2021/04/01 07:52:00;108084.00;0.36;187.52;42522.00;0.14;74.25;;;;;24.60;1.00;;;;;;2240700;62;2011;-87
2021/04/01 07:54:36;182035.00;0.61;314.99;31171.00;0.10;54.61;;;;;24.90;1.00;;;;;;2240771;62;1779;-88
2021/04/01 07:57:25;172728.00;0.58;298.97;82275.00;0.27;142.97;;;;;25.30;1.00;;;;;;2240758;62;1006;-88
2021/04/01 07:59:57;344391.00;1.15;594.22;97795.00;0.33;169.77;;;;;25.70;1.00;;;;;;2236697;62;1342;-88
2021/04/01 08:02:29;419553.00;1.40;723.42;105157.00;0.35;182.47;;;;;25.60;1.00;;;;;;2256406;61;1106;-88
2021/04/01 08:04:58;238816.00;0.80;412.71;71829.00;0.24;124.92;;;;;25.60;1.00;;;;;;2249918;61;998;-87
2021/04/01 08:07:32;105068.00;0.35;182.32;0.00;0.00;0.62;;;;;25.40;1.00;;;;;;2256387;61;1002;-89
2021/04/01 08:10:05;76108.00;0.25;132.31;0.00;0.00;0.62;;;;;25.20;1.00;;;;;;2248347;61;1365;-88
2021/04/01 08:12:42;104073.00;0.35;180.60;0.00;0.00;0.62;;;;;25.40;1.00;;;;;;2250661;61;949;-88
2021/04/01 08:15:13;170754.00;0.57;295.57;79252.00;0.26;137.75;;;;;25.70;1.00;;;;;;2248502;61;946;-88
2021/04/01 08:25:16;497857.00;1.66;858.13;78223.00;0.26;135.97;;;;;26.60;1.00;;;;;;2274395;61;1290;-85
2021/04/01 08:27:52;288907.00;0.96;498.85;120492.00;0.40;208.93;;;;;27.00;1.00;;;;;;2272811;61;1089;-85
2021/04/01 08:35:31;58779.00;0.20;102.37;0.00;0.00;0.62;;;;;27.40;1.00;;;;;;2266658;61;1407;-87
2021/04/01 08:38:10;0.00;0.00;0.62;0.00;0.00;0.62;;;;;27.80;1.00;;;;;;2264874;61;926;-87
2021/04/01 08:40:39;128943.00;0.43;223.51;31347.00;0.10;54.91;;;;;27.00;1.00;;;;;;2264901;61;1424;-88
2021/04/01 08:43:34;104462.00;0.35;181.27;0.00;0.00;0.62;;;;;26.40;1.00;;;;;;2257864;61;957;-89
2021/04/01 08:46:27;96451.00;0.32;167.45;5567.00;0.02;10.27;;;;;26.30;1.00;;;;;;2260309;61;972;-89
2021/04/01 08:49:09;90232.00;0.30;156.71;0.00;0.00;0.62;;;;;26.00;1.00;;;;;;2233956;61;1061;-86
2021/04/01 08:52:01;254194.00;0.85;439.16;39113.00;0.13;68.35;;;;;25.80;1.00;;;;;;2228699;62;1920;-88
2021/04/01 08:54:39;100880.00;0.34;175.09;0.00;0.00;0.62;;;;;26.30;1.00;;;;;;2213279;62;1115;-87
2021/04/01 08:57:22;26015.00;0.09;45.68;0.00;0.00;0.62;;;;;26.30;1.00;;;;;;2213305;62;1000;-88
2021/04/01 09:00:01;97303.00;0.32;168.92;0.00;0.00;0.62;;;;;26.30;1.00;;;;;;2213216;62;1300;-86
2021/04/01 09:02:29;0.00;0.00;0.62;0.00;0.00;0.62;;;;;25.80;1.00;;;;;;2213316;62;1005;-88
2021/04/01 09:05:00;0.00;0.00;0.62;0.00;0.00;0.62;;;;;25.80;1.00;;;;;;2216590;62;1004;-88
2021/04/01 09:07:30;260206.00;0.87;449.50;48454.00;0.16;84.51;;;;;25.80;1.00;;;;;;2216961;62;1033;-88
2021/04/01 09:10:04;160839.00;0.54;278.48;0.00;0.00;0.62;;;;;25.90;1.00;;;;;;2227665;62;1352;-89
2021/04/01 09:12:42;97916.00;0.33;169.97;0.00;0.00;0.62;;;;;25.90;1.00;;;;;;2228657;62;1939;-86
2021/04/01 09:15:18;282605.00;0.94;488.02;81141.00;0.27;141.01;;;;;25.80;1.00;;;;;;2228869;62;1737;-88
2021/04/01 09:17:46;360026.00;1.20;621.09;82601.00;0.28;143.53;;;;;26.00;1.00;;;;;;2228822;62;1039;-87
2021/04/01 09:22:44;966998.00;3.22;1674.11;70500.00;0.23;122.62;;;;;26.90;1.00;;;;;;1656408;40;2473;-88
2021/04/01 09:35:10;332497.00;1.11;573.78;70272.00;0.23;122.23;;;;;26.50;1.00;;;;;;2270199;61;1236;-87
2021/04/01 09:37:49;170431.00;0.57;295.01;99709.00;0.33;173.07;;;;;26.40;1.00;;;;;;2264157;61;948;-88
2021/04/01 09:40:17;172076.00;0.57;297.84;79654.00;0.27;138.44;;;;;26.20;1.00;;;;;;2264178;61;1425;-87
2021/04/01 09:42:46;569966.00;1.90;982.39;154346.00;0.51;267.30;;;;;26.00;1.00;;;;;;2256225;61;980;-89
2021/04/01 09:45:14;368150.00;1.23;635.06;71133.00;0.24;123.72;;;;;26.30;1.00;;;;;;2256261;61;985;-89
2021/04/01 09:47:47;366320.00;1.22;631.91;103833.00;0.35;180.19;;;;;26.20;1.00;;;;;;2252719;61;1092;-88
2021/04/01 09:50:16;209130.00;0.70;361.64;82466.00;0.27;143.30;;;;;25.80;1.00;;;;;;2249390;61;1484;-90
2021/04/01 09:55:15;42605.00;0.14;74.40;0.00;0.00;0.62;;;;;26.50;1.00;;;;;;2270492;61;1443;-86
2021/04/01 09:57:44;205113.00;0.68;354.72;83947.00;0.28;145.85;;;;;26.80;1.00;;;;;;2264894;61;1015;-87
2021/04/01 10:03:11;252012.00;0.84;435.41;81238.00;0.27;141.18;;;;;26.60;1.00;;;;;;2268444;61;976;-86
2021/04/01 10:05:41;579884.00;1.93;999.50;120625.00;0.40;209.16;;;;;26.70;1.00;;;;;;2268519;61;926;-86
2021/04/01 10:08:10;204476.00;0.68;353.63;87698.00;0.29;152.33;;;;;27.10;1.00;;;;;;2268554;61;1014;-86
2021/04/01 10:10:40;31234.00;0.10;54.72;0.00;0.00;0.62;;;;;27.40;1.00;;;;;;2263953;61;1997;-86
2021/04/01 10:13:16;7075.00;0.02;12.88;0.00;0.00;0.62;;;;;27.40;1.00;;;;;;2254181;61;1036;-88
2021/04/01 10:15:43;225678.00;0.75;390.11;55289.00;0.18;96.33;;;;;26.90;1.00;;;;;;2259945;61;968;-88
2021/04/01 10:18:11;68270.00;0.23;118.77;0.00;0.00;0.62;;;;;26.70;1.00;;;;;;2260086;61;1032;-87
2021/04/01 10:20:39;30146.00;0.10;52.84;0.00;0.00;0.62;;;;;26.90;1.00;;;;;;2259915;61;1455;-87
2021/04/01 10:23:08;203108.00;0.68;351.27;0.00;0.00;0.62;;;;;26.70;1.00;;;;;;2253499;61;952;-88
2021/04/01 10:25:48;21905.00;0.07;38.57;0.00;0.00;0.62;;;;;26.50;1.00;;;;;;2252039;61;1014;-86
2021/04/01 10:31:13;89264.00;0.30;155.04;0.00;0.00;0.62;;;;;26.40;1.00;;;;;;2232446;62;1914;-88
2021/04/01 10:33:54;65128.00;0.22;113.34;0.00;0.00;0.62;;;;;26.90;1.00;;;;;;2234368;62;1178;-88
2021/04/01 10:36:29;640391.00;2.13;1104.02;138796.00;0.46;240.50;;;;;27.00;1.00;;;;;;2244186;61;941;-88
2021/04/01 10:39:08;391853.00;1.31;675.80;141209.00;0.47;244.66;;;;;26.90;1.00;;;;;;2240868;61;1450;-87
2021/04/01 10:41:45;600749.00;2.00;1035.51;84281.00;0.28;146.43;;;;;26.90;1.00;;;;;;2240859;62;1034;-88
2021/04/01 10:44:13;273706.00;0.91;472.72;0.00;0.00;0.62;;;;;26.60;1.00;;;;;;2246252;61;982;-86
2021/04/01 10:49:09;155541.00;0.52;269.36;0.00;0.00;0.62;;;;;26.50;1.00;;;;;;2270939;61;1420;-87
2021/04/01 10:51:37;368488.00;1.23;635.64;0.00;0.00;0.62;;;;;26.80;1.00;;;;;;2269225;61;1918;-88
2021/04/01 10:54:09;239727.00;0.80;414.28;0.00;0.00;0.62;;;;;27.10;1.00;;;;;;2264703;61;944;-87
2021/04/01 10:56:48;362230.00;1.21;624.88;0.00;0.00;0.62;;;;;26.80;1.00;;;;;;2256697;61;950;-87
2021/04/01 10:59:16;290418.00;0.97;501.45;0.00;0.00;0.62;;;;;26.80;1.00;;;;;;2253399;61;1365;-87
2021/04/01 11:01:44;211744.00;0.71;366.14;0.00;0.00;0.62;;;;;26.70;1.00;;;;;;2252664;61;1018;-87
2021/04/01 11:04:13;428050.00;1.43;738.03;82127.00;0.27;142.71;;;;;26.70;1.00;;;;;;2252645;61;980;-87
2021/04/01 11:06:45;176972.00;0.59;306.27;79887.00;0.27;138.84;;;;;26.50;1.00;;;;;;2246137;61;983;-86
2021/04/01 11:09:12;222350.00;0.74;384.39;77838.00;0.26;135.30;;;;;26.50;1.00;;;;;;2252688;61;1321;-87
2021/04/01 11:12:13;505597.00;1.69;871.46;75902.00;0.25;131.96;;;;;26.70;1.00;;;;;;2255168;61;1995;-88
2021/04/01 11:17:16;144334.00;0.48;250.04;0.00;0.00;0.62;;;;;27.10;1.00;;;;;;2271756;61;1312;-88
2021/04/01 11:19:45;148543.00;0.50;257.30;0.00;0.00;0.62;;;;;27.20;1.00;;;;;;2264663;61;1450;-88
2021/04/01 11:22:15;14367.00;0.05;25.51;0.00;0.00;0.62;;;;;27.20;1.00;;;;;;2265115;61;920;-88
2021/04/01 11:24:42;50544.00;0.17;88.13;0.00;0.00;0.62;;;;;27.10;1.00;;;;;;2260617;61;945;-86
2021/04/01 11:27:11;186973.00;0.62;323.50;19323.00;0.06;34.10;;;;;26.80;1.00;;;;;;2260245;61;1125;-87
2021/04/01 11:29:41;20157.00;0.07;35.54;0.00;0.00;0.62;;;;;26.90;1.00;;;;;;2248623;61;1415;-87
2021/04/01 11:32:17;0.00;0.00;0.62;0.00;0.00;0.62;;;;;27.20;1.00;;;;;;2245362;61;2006;-87
2021/04/01 11:34:44;107839.00;0.36;187.10;0.00;0.00;0.62;;;;;27.30;1.00;;;;;;2248719;61;1030;-87
2021/04/01 11:37:16;199202.00;0.66;344.55;0.00;0.00;0.62;;;;;27.10;1.00;;;;;;2244602;61;1100;-87
2021/04/01 11:39:43;82111.00;0.27;142.68;0.00;0.00;0.62;;;;;27.10;1.00;;;;;;2234841;62;1283;-87
2021/04/01 11:42:13;160721.00;0.54;278.28;0.00;0.00;0.62;;;;;27.10;1.00;;;;;;2246814;61;1030;-87
2021/04/01 11:44:45;91019.00;0.30;158.07;0.00;0.00;0.62;;;;;27.00;1.00;;;;;;2242768;61;1019;-87
2021/04/01 11:47:13;143032.00;0.48;247.80;26565.00;0.09;46.64;;;;;27.00;1.00;;;;;;2240670;62;1006;-87
2021/04/01 11:49:40;235294.00;0.78;406.66;0.00;0.00;0.62;;;;;27.30;1.00;;;;;;2237348;62;1368;-88
2021/04/01 11:52:09;296258.00;0.99;511.49;0.00;0.00;0.62;;;;;27.60;1.00;;;;;;2237392;62;1912;-86
2021/04/01 11:54:36;94615.00;0.32;164.28;0.00;0.00;0.62;;;;;27.30;1.00;;;;;;2248408;61;1094;-86
2021/04/01 11:57:04;104997.00;0.35;182.20;0.00;0.00;0.62;;;;;27.40;1.00;;;;;;2256584;61;1030;-87